Time;durP1;ratioP1;P1;durP2;ratioP2;P2;SDS_P1;SDS_P2;PMS_P1;PMS_P2;Temp;Humidity;BMP_temperature;BMP_pressure;BME280_temperature;BME280_humidity;BME280_pressure;Samples;Min_cycle;Max_cycle;Signal;HPM_P1;HPM_P2
2022/10/05 00:01:45;;;;;;;;;23.33;20.00;;;;;15.62;71.99;101628.91;5035722;28;45376;-48
2022/10/05 00:04:25;;;;;;;;;20.67;18.67;;;;;15.57;72.18;101618.66;5035885;28;45612;-43
2022/10/05 00:07:07;;;;;;;;;21.67;16.67;;;;;15.46;72.12;101625.16;5017548;28;48218;-44
2022/10/05 00:09:32;;;;;;;;;28.33;17.67;;;;;15.50;71.96;101627.50;5035318;28;45451;-44
2022/10/05 00:11:58;;;;;;;;;18.33;17.67;;;;;15.46;72.71;101624.28;5035327;28;45388;-42
2022/10/05 00:14:30;;;;;;;;;20.33;17.67;;;;;15.42;72.70;101617.56;5035608;28;45463;-45
2022/10/05 00:16:56;;;;;;;;;24.33;16.00;;;;;15.35;72.88;101620.03;5034452;28;45697;-44
2022/10/05 00:19:22;;;;;;;;;17.33;16.67;;;;;15.36;72.92;101624.41;5035069;28;45363;-45
2022/10/05 00:21:47;;;;;;;;;22.33;17.33;;;;;15.29;72.98;101612.59;5035259;28;45395;-44
2022/10/05 00:24:16;;;;;;;;;23.00;17.00;;;;;15.30;73.21;101610.78;5035407;28;45429;-43
2022/10/05 00:26:42;;;;;;;;;18.33;14.00;;;;;15.28;72.88;101610.09;5035042;28;46295;-45
2022/10/05 00:29:17;;;;;;;;;17.67;15.33;;;;;15.24;73.11;101612.22;5034911;28;45395;-43
2022/10/05 00:31:43;;;;;;;;;14.00;13.67;;;;;15.18;73.28;101600.31;5036670;28;45466;-42
2022/10/05 00:34:08;;;;;;;;;18.67;13.67;;;;;15.12;73.38;101595.56;5038937;28;45435;-46
2022/10/05 00:36:33;;;;;;;;;17.67;15.00;;;;;15.13;73.42;101599.94;5038285;28;46385;-44
2022/10/05 00:39:00;;;;;;;;;18.67;13.67;;;;;15.07;73.45;101599.72;5038566;28;45305;-43
2022/10/05 00:42:17;;;;;;;;;15.33;12.67;;;;;15.06;73.20;101603.41;5038516;28;45514;-43
2022/10/05 00:45:01;;;;;;;;;17.33;15.67;;;;;14.93;73.04;101585.03;4957440;28;45382;-43
2022/10/05 00:47:49;;;;;;;;;16.33;14.67;;;;;15.01;73.05;101603.03;4956846;28;45585;-44
2022/10/05 00:50:36;;;;;;;;;21.33;13.33;;;;;14.97;73.08;101597.13;4957212;28;45386;-42
2022/10/05 00:53:33;;;;;;;;;19.67;13.33;;;;;14.95;73.04;101594.59;4956828;28;45335;-42
2022/10/05 00:56:27;;;;;;;;;14.33;14.33;;;;;14.91;73.42;101595.88;4957323;28;45287;-42
2022/10/05 00:59:04;;;;;;;;;11.33;11.33;;;;;14.87;73.40;101607.91;4956857;28;45486;-44
2022/10/05 01:01:52;;;;;;;;;13.00;11.00;;;;;14.85;73.27;101598.34;4956891;28;45295;-43
2022/10/05 01:04:34;;;;;;;;;14.00;12.00;;;;;14.82;73.33;101599.50;4957158;28;45446;-44
2022/10/05 01:07:14;;;;;;;;;18.00;15.00;;;;;14.82;72.90;101604.00;4957040;28;45336;-47
2022/10/05 01:10:08;;;;;;;;;14.67;12.67;;;;;14.80;73.02;101597.97;4956932;28;45951;-42
2022/10/05 01:12:40;;;;;;;;;12.33;10.00;;;;;14.77;73.44;101603.63;4956624;28;45457;-43
2022/10/05 01:15:18;;;;;;;;;15.67;12.00;;;;;14.75;73.49;101601.13;4956960;28;45356;-43
2022/10/05 01:17:50;;;;;;;;;16.67;12.00;;;;;14.74;73.22;101599.41;4956803;28;45282;-43
2022/10/05 01:20:44;;;;;;;;;12.00;12.00;;;;;14.72;73.07;101604.09;4986060;28;46447;-47
2022/10/05 01:23:46;;;;;;;;;10.33;9.67;;;;;14.70;73.09;101600.72;5017671;28;45479;-42
2022/10/05 01:26:30;;;;;;;;;15.33;13.00;;;;;14.67;73.47;101596.53;5017928;28;45403;-42
2022/10/05 01:29:04;;;;;;;;;11.67;11.00;;;;;14.68;73.65;101597.34;5018107;28;45511;-44
2022/10/05 01:31:58;;;;;;;;;11.33;9.33;;;;;14.70;72.36;101596.19;5017761;28;46284;-44
2022/10/05 01:34:39;;;;;;;;;10.33;9.33;;;;;14.75;73.24;101592.22;5017766;28;45327;-42
2022/10/05 01:37:26;;;;;;;;;11.00;11.00;;;;;14.79;72.84;101591.78;5017495;28;45314;-45
2022/10/05 01:40:05;;;;;;;;;11.33;11.00;;;;;14.87;72.40;101591.00;5001912;28;45324;-45
2022/10/05 01:42:39;;;;;;;;;10.67;10.00;;;;;14.92;72.74;101591.41;5017131;28;46190;-46
2022/10/05 01:45:14;;;;;;;;;12.33;8.67;;;;;15.00;72.28;101587.91;5017879;28;45431;-45
2022/10/05 01:47:46;;;;;;;;;10.00;10.00;;;;;15.04;71.97;101587.44;5018207;28;45366;-45
2022/10/05 01:50:36;;;;;;;;;9.00;8.00;;;;;15.06;71.75;101584.63;5017657;28;45884;-44
2022/10/05 01:53:14;;;;;;;;;13.67;10.00;;;;;15.12;71.62;101582.16;5028314;28;46203;-43
2022/10/05 01:56:16;;;;;;;;;12.67;12.00;;;;;15.11;71.51;101575.13;5037618;28;45454;-42
2022/10/05 01:59:05;;;;;;;;;9.67;7.67;;;;;15.14;71.82;101580.19;5036473;28;45266;-42
2022/10/05 02:01:47;;;;;;;;;9.67;9.67;;;;;15.17;71.11;101577.19;5037444;28;45449;-43
2022/10/05 02:04:37;;;;;;;;;10.33;10.00;;;;;15.17;70.84;101562.97;5037027;28;46115;-44
2022/10/05 02:07:08;;;;;;;;;11.33;10.67;;;;;15.21;71.11;101570.53;5037064;28;45461;-44
2022/10/05 02:09:44;;;;;;;;;9.33;6.00;;;;;15.23;71.00;101576.56;5037136;28;45389;-44
2022/10/05 02:12:15;;;;;;;;;10.33;8.00;;;;;15.27;70.67;101570.88;5037192;28;45320;-42
2022/10/05 02:14:43;;;;;;;;;12.00;8.00;;;;;15.31;70.66;101566.91;5036672;28;47112;-43
2022/10/05 02:17:16;;;;;;;;;11.00;7.67;;;;;15.24;70.46;101553.25;5036886;28;45353;-44
2022/10/05 02:19:45;;;;;;;;;8.33;8.33;;;;;15.32;70.46;101565.88;5036371;28;45352;-43
2022/10/05 02:22:18;;;;;;;;;11.00;9.33;;;;;15.26;70.41;101548.59;5037039;28;45550;-43
2022/10/05 02:24:53;;;;;;;;;8.67;8.67;;;;;15.35;69.97;101557.53;5036598;28;46217;-45
2022/10/05 02:27:26;;;;;;;;;7.67;6.67;;;;;15.36;69.90;101553.84;5036866;28;45234;-44
2022/10/05 02:29:58;;;;;;;;;13.67;10.33;;;;;15.36;70.06;101556.53;5036657;28;45264;-44
2022/10/05 02:32:28;;;;;;;;;6.67;5.67;;;;;15.25;69.75;101530.81;5036918;28;45461;-43
2022/10/05 02:35:01;;;;;;;;;12.00;9.67;;;;;15.31;69.65;101543.59;5036356;28;46278;-45
2022/10/05 02:37:56;;;;;;;;;6.00;5.00;;;;;15.31;70.06;101545.44;5036250;28;45471;-44
2022/10/05 02:40:44;;;;;;;;;6.00;6.00;;;;;15.29;70.12;101539.38;5036773;28;45320;-42
2022/10/05 02:43:40;;;;;;;;;8.00;7.33;;;;;15.28;69.86;101532.34;5036254;28;45538;-46
2022/10/05 02:46:27;;;;;;;;;10.00;6.00;;;;;15.27;69.86;101533.34;5036159;28;47021;-44
2022/10/05 02:48:55;;;;;;;;;9.00;9.00;;;;;15.25;70.38;101529.97;5036083;28;45410;-43
2022/10/05 02:51:37;;;;;;;;;9.00;9.00;;;;;15.15;69.67;101522.06;5036502;28;45524;-45
2022/10/05 02:54:11;;;;;;;;;8.67;8.67;;;;;15.19;69.90;101526.94;5016135;28;45430;-44
2022/10/05 02:56:37;;;;;;;;;15.00;9.00;;;;;15.16;70.09;101527.25;5016176;28;46336;-45
2022/10/05 02:59:20;;;;;;;;;13.67;8.67;;;;;15.12;70.14;101525.03;5016472;28;45512;-44
2022/10/05 03:01:53;;;;;;;;;9.00;9.00;;;;;15.09;70.08;101520.03;5016426;28;45322;-44
2022/10/05 03:04:47;;;;;;;;;10.33;7.00;;;;;15.08;70.24;101529.88;5016492;28;45345;-44
2022/10/05 03:07:30;;;;;;;;;8.33;8.00;;;;;15.02;70.46;101535.03;5016041;28;46080;-42
2022/10/05 03:10:04;;;;;;;;;12.33;9.00;;;;;14.95;70.37;101524.91;5015693;28;45313;-44
2022/10/05 03:12:41;;;;;;;;;8.67;8.00;;;;;14.90;70.41;101537.13;5016217;28;45416;-43
2022/10/05 03:15:16;;;;;;;;;14.33;12.67;;;;;14.86;70.58;101525.03;5016570;28;45432;-45
2022/10/05 03:18:03;;;;;;;;;16.33;10.67;;;;;14.75;70.76;101528.81;5015992;28;46322;-45
2022/10/05 03:20:47;;;;;;;;;11.00;10.00;;;;;14.75;71.07;101523.44;5015931;28;45253;-43
2022/10/05 03:23:37;;;;;;;;;10.00;9.33;;;;;14.69;71.21;101521.38;5016000;28;45408;-43
2022/10/05 03:26:32;;;;;;;;;12.67;10.00;;;;;14.66;70.89;101517.19;5016245;28;45357;-46
2022/10/05 03:29:03;;;;;;;;;11.67;10.33;;;;;14.63;71.06;101512.13;4935188;28;46214;-44
2022/10/05 03:31:45;;;;;;;;;12.33;10.00;;;;;14.57;70.96;101504.69;4935397;28;45397;-44
2022/10/05 03:34:26;;;;;;;;;10.00;8.33;;;;;14.54;70.88;101504.16;4935354;28;45859;-45
2022/10/05 03:37:18;;;;;;;;;11.67;10.00;;;;;14.56;71.02;101502.19;4935542;28;45935;-42
2022/10/05 03:39:53;;;;;;;;;12.33;10.00;;;;;14.50;71.15;101503.66;4935306;28;46359;-44
2022/10/05 03:42:43;;;;;;;;;10.67;9.00;;;;;14.44;70.96;101499.69;4935508;28;45466;-45
2022/10/05 03:45:29;;;;;;;;;10.00;10.00;;;;;14.41;71.27;101502.72;4935226;28;45494;-47
2022/10/05 03:48:04;;;;;;;;;11.67;9.67;;;;;14.37;71.20;101495.13;4935335;28;45505;-43
2022/10/05 03:50:49;;;;;;;;;12.67;11.67;;;;;14.36;71.38;101499.63;4935027;28;46096;-45
2022/10/05 03:53:26;;;;;;;;;12.67;11.00;;;;;14.31;71.14;101490.38;4948678;28;45433;-43
2022/10/05 03:55:58;;;;;;;;;11.00;10.33;;;;;14.29;71.67;101490.53;4954643;28;45295;-46
2022/10/05 03:58:33;;;;;;;;;10.00;8.33;;;;;14.23;71.54;101488.47;4954627;28;45403;-44
2022/10/05 04:01:04;;;;;;;;;10.00;8.67;;;;;14.27;71.33;101489.84;4954012;28;45585;-44
2022/10/05 04:03:42;;;;;;;;;8.00;8.00;;;;;14.25;71.58;101494.53;4954449;28;45504;-42
2022/10/05 04:06:14;;;;;;;;;11.00;9.00;;;;;14.21;71.56;101499.31;5020981;28;45581;-43
2022/10/05 04:08:55;;;;;;;;;12.33;9.33;;;;;14.19;71.68;101498.63;5038854;28;45466;-43
2022/10/05 04:11:28;;;;;;;;;10.33;10.00;;;;;14.11;71.84;101500.38;5038632;28;45438;-41
2022/10/05 04:14:02;;;;;;;;;12.00;8.00;;;;;14.00;72.13;101490.75;5038649;28;45344;-41
2022/10/05 04:16:33;;;;;;;;;11.00;8.67;;;;;13.99;72.72;101494.41;5038945;28;45376;-42
2022/10/05 04:19:08;;;;;;;;;10.00;8.00;;;;;13.92;72.53;101496.84;5038919;28;45392;-42
2022/10/05 04:21:43;;;;;;;;;9.67;9.67;;;;;13.88;73.16;101494.63;5038231;28;46116;-43
2022/10/05 04:24:16;;;;;;;;;9.00;7.33;;;;;13.85;73.18;101492.25;5038774;28;45247;-43
2022/10/05 04:27:02;;;;;;;;;11.00;8.00;;;;;13.81;73.41;101493.53;5038683;28;45292;-43
2022/10/05 04:30:02;;;;;;;;;12.33;8.00;;;;;13.76;73.24;101485.94;5038854;28;45472;-43
2022/10/05 04:32:27;;;;;;;;;9.00;9.00;;;;;13.73;73.55;101486.25;5038556;28;46322;-45
2022/10/05 04:34:57;;;;;;;;;12.67;9.33;;;;;13.67;73.85;101485.00;5038058;28;45716;-43
2022/10/05 04:37:48;;;;;;;;;9.67;8.00;;;;;13.65;73.84;101486.13;5020444;28;45385;-46
2022/10/05 04:40:13;;;;;;;;;7.00;7.00;;;;;13.63;74.22;101486.31;5038709;28;45431;-43
2022/10/05 04:42:56;;;;;;;;;13.00;8.33;;;;;13.55;73.93;101475.50;5038052;28;45471;-43
2022/10/05 04:45:47;;;;;;;;;10.67;9.00;;;;;13.55;73.91;101486.19;5038407;28;45469;-46
2022/10/05 04:48:15;;;;;;;;;9.67;9.00;;;;;13.53;74.64;101488.19;5038257;28;45386;-44
2022/10/05 04:51:08;;;;;;;;;18.00;9.00;;;;;13.50;74.29;101483.13;5038688;28;45915;-44
2022/10/05 04:53:55;;;;;;;;;9.33;7.00;;;;;13.48;73.90;101485.09;5037782;28;45618;-43
2022/10/05 04:56:33;;;;;;;;;10.00;9.33;;;;;13.42;73.59;101473.19;5038282;28;45355;-43
2022/10/05 04:59:34;;;;;;;;;9.67;7.33;;;;;13.40;74.23;101477.84;5038344;28;45748;-44
2022/10/05 05:02:17;;;;;;;;;9.33;9.33;;;;;13.32;74.06;101469.72;5038233;28;45485;-43
2022/10/05 05:04:52;;;;;;;;;13.00;9.00;;;;;13.32;74.45;101472.38;5037862;28;46064;-43
2022/10/05 05:07:34;;;;;;;;;9.00;9.00;;;;;13.31;74.23;101469.84;5037728;28;45367;-42
2022/10/05 05:10:18;;;;;;;;;12.00;9.00;;;;;13.26;74.80;101470.28;5037984;28;45262;-42
2022/10/05 05:12:52;;;;;;;;;12.33;9.00;;;;;13.22;75.23;101460.84;5037391;28;45473;-43
2022/10/05 05:15:32;;;;;;;;;15.33;12.67;;;;;13.17;75.30;101458.63;5037907;28;45395;-42
2022/10/05 05:18:18;;;;;;;;;13.33;12.67;;;;;13.17;75.68;101465.78;5037100;28;45277;-43
2022/10/05 05:21:05;;;;;;;;;13.67;10.67;;;;;13.12;75.37;101460.88;5037655;28;45284;-41
2022/10/05 05:23:38;;;;;;;;;14.00;11.33;;;;;13.11;75.48;101459.22;5038264;28;45796;-46
2022/10/05 05:26:31;;;;;;;;;15.67;9.67;;;;;13.08;75.71;101450.66;5037530;28;45415;-43
2022/10/05 05:29:21;;;;;;;;;14.00;10.00;;;;;13.05;75.29;101458.94;5037511;28;45268;-46
2022/10/05 05:31:56;;;;;;;;;14.33;12.67;;;;;13.02;75.88;101453.88;5019651;28;45419;-43
2022/10/05 05:34:40;;;;;;;;;11.67;11.67;;;;;13.01;75.78;101453.03;5037801;28;45464;-42
2022/10/05 05:37:05;;;;;;;;;13.00;11.67;;;;;13.01;75.87;101444.19;5037234;28;46460;-42
2022/10/05 05:39:36;;;;;;;;;16.00;13.00;;;;;12.97;76.39;101452.47;5037434;28;45963;-42
2022/10/05 05:42:10;;;;;;;;;13.67;10.33;;;;;12.96;76.20;101447.28;5037551;28;45357;-44
2022/10/05 05:44:50;;;;;;;;;21.00;13.00;;;;;12.95;75.94;101448.28;5037648;28;45356;-42
2022/10/05 05:47:34;;;;;;;;;9.00;9.00;;;;;12.93;75.97;101447.59;5036270;28;46891;-45
2022/10/05 05:50:17;;;;;;;;;10.00;9.00;;;;;12.91;76.64;101447.75;5037108;28;45360;-48
2022/10/05 05:52:56;;;;;;;;;13.33;13.00;;;;;12.87;76.46;101445.50;5037058;28;45182;-48
2022/10/05 05:55:26;;;;;;;;;17.33;11.67;;;;;12.87;76.70;101446.34;5037675;28;45743;-48
2022/10/05 05:58:16;;;;;;;;;14.00;10.67;;;;;12.85;76.10;101445.66;5036892;28;45466;-48
2022/10/05 06:01:20;;;;;;;;;12.33;9.00;;;;;12.82;76.43;101447.78;5037075;28;45486;-42
2022/10/05 06:04:01;;;;;;;;;14.00;13.00;;;;;12.81;75.67;101446.94;5036743;28;45317;-43
2022/10/05 06:06:30;;;;;;;;;11.00;11.00;;;;;12.81;77.09;101452.28;5037293;28;45339;-43
2022/10/05 06:09:01;;;;;;;;;14.00;13.00;;;;;12.82;77.33;101451.28;5036598;28;46222;-44
2022/10/05 06:11:41;;;;;;;;;21.33;17.67;;;;;12.84;75.99;101451.13;5036028;28;45459;-43
2022/10/05 06:14:27;;;;;;;;;14.67;13.33;;;;;12.85;75.85;101445.66;5037051;28;45434;-43
2022/10/05 06:17:00;;;;;;;;;18.33;15.33;;;;;12.84;77.13;101446.63;5037105;28;45500;-45
2022/10/05 06:19:27;;;;;;;;;20.33;15.67;;;;;12.82;77.33;101453.94;5036928;28;46630;-46
2022/10/05 06:22:05;;;;;;;;;20.33;16.00;;;;;12.82;76.41;101443.25;5036801;28;45446;-43
2022/10/05 06:24:39;;;;;;;;;24.33;16.67;;;;;12.83;76.79;101439.59;5036551;28;45378;-43
2022/10/05 06:27:17;;;;;;;;;20.33;17.33;;;;;12.85;76.39;101442.13;5036983;28;45382;-44
2022/10/05 06:30:04;;;;;;;;;21.67;19.67;;;;;12.80;76.53;101437.22;5035528;28;45361;-43
2022/10/05 06:32:45;;;;;;;;;18.00;14.33;;;;;12.90;76.04;101450.56;5036643;28;45333;-43
2022/10/05 06:35:31;;;;;;;;;24.00;18.67;;;;;12.89;76.93;101451.53;5036613;28;45605;-45
2022/10/05 06:38:34;;;;;;;;;22.67;20.00;;;;;12.91;76.42;101450.41;5036726;28;45375;-44
2022/10/05 06:41:38;;;;;;;;;22.00;18.67;;;;;12.94;76.28;101444.78;5036403;28;46216;-44
2022/10/05 06:44:15;;;;;;;;;22.00;19.00;;;;;12.97;76.46;101449.81;5036551;28;45473;-43
2022/10/05 06:46:55;;;;;;;;;21.67;19.33;;;;;12.89;76.37;101436.38;5036627;28;45502;-47
2022/10/05 06:49:30;;;;;;;;;21.67;20.67;;;;;13.03;75.98;101450.25;5036763;28;45373;-45
2022/10/05 06:52:02;;;;;;;;;26.33;22.67;;;;;13.06;76.53;101450.81;5035944;28;45987;-45
2022/10/05 06:54:36;;;;;;;;;22.00;22.00;;;;;13.09;76.24;101455.81;5035792;28;45418;-44
2022/10/05 06:57:28;;;;;;;;;26.67;20.67;;;;;13.14;75.89;101453.56;5036330;28;45378;-44
2022/10/05 07:00:06;;;;;;;;;32.33;22.33;;;;;13.19;76.19;101450.47;5036411;28;45371;-44
2022/10/05 07:02:59;;;;;;;;;29.00;20.67;;;;;13.20;75.45;101438.78;5035955;28;46121;-47
2022/10/05 07:05:33;;;;;;;;;27.67;19.67;;;;;13.26;75.54;101450.75;5036082;28;45487;-44
2022/10/05 07:08:03;;;;;;;;;28.33;18.00;;;;;13.32;74.97;101443.00;5035967;28;45641;-50
2022/10/05 07:10:39;;;;;;;;;16.67;16.33;;;;;13.36;75.06;101441.72;5036257;28;45398;-46
2022/10/05 07:13:42;;;;;;;;;11.67;11.67;;;;;13.42;75.12;101440.28;5036023;28;45433;-41
2022/10/05 07:16:26;;;;;;;;;15.00;15.00;;;;;13.46;75.53;101441.66;5036148;28;45316;-43
2022/10/05 07:19:28;;;;;;;;;19.67;18.00;;;;;13.53;75.06;101445.44;5036092;28;45332;-46
2022/10/05 07:22:05;;;;;;;;;18.67;18.67;;;;;13.57;75.17;101446.81;5036259;28;45508;-44
2022/10/05 07:24:40;;;;;;;;;13.67;13.67;;;;;13.64;75.00;101463.09;5035501;28;46370;-43
2022/10/05 07:27:15;;;;;;;;;22.00;18.33;;;;;13.70;74.99;101459.81;5035736;28;45343;-45
2022/10/05 07:29:55;;;;;;;;;23.33;20.33;;;;;13.75;75.07;101456.69;5035796;28;45655;-44
2022/10/05 07:32:35;;;;;;;;;24.33;19.00;;;;;13.83;74.92;101465.66;5036273;28;45415;-46
2022/10/05 07:38:44;;;;;;;;;21.00;16.00;;;;;13.97;74.66;101459.78;5035722;28;45359;-43
2022/10/05 07:41:21;;;;;;;;;20.67;16.67;;;;;14.12;74.80;101468.13;4954123;28;45485;-43
2022/10/05 07:44:12;;;;;;;;;26.00;16.33;;;;;14.23;73.82;101469.72;4955002;28;45457;-44
2022/10/05 07:46:48;;;;;;;;;23.33;18.00;;;;;14.35;74.10;101473.03;4954519;28;46153;-43
2022/10/05 07:49:35;;;;;;;;;18.67;17.00;;;;;14.44;73.79;101472.09;4954585;28;45540;-44
2022/10/05 07:52:05;;;;;;;;;19.33;18.33;;;;;14.58;73.65;101479.63;4948939;28;46508;-45
2022/10/05 07:54:56;;;;;;;;;14.00;10.67;;;;;14.66;72.77;101484.19;4953552;28;45636;-45
2022/10/05 07:57:30;;;;;;;;;15.00;14.00;;;;;14.79;73.18;101484.66;4942339;28;46072;-44
2022/10/05 08:00:14;;;;;;;;;13.67;13.67;;;;;14.92;72.61;101486.91;4934909;28;45457;-46
2022/10/05 08:02:45;;;;;;;;;16.00;15.33;;;;;15.02;72.60;101476.09;4934939;28;45431;-44
2022/10/05 08:05:14;;;;;;;;;14.67;14.67;;;;;15.09;72.51;101464.59;4935208;28;45530;-43
2022/10/05 08:07:39;;;;;;;;;12.67;12.67;;;;;15.40;71.67;101482.84;4945172;28;47351;-44
2022/10/05 08:10:15;;;;;;;;;17.67;13.00;;;;;15.55;71.71;101478.56;4953833;28;45463;-49
2022/10/05 08:13:00;;;;;;;;;16.33;12.00;;;;;15.95;70.99;101472.50;4954454;28;45474;-48
2022/10/05 08:15:41;;;;;;;;;12.00;10.00;;;;;17.53;67.24;101470.38;4954076;28;45567;-45
2022/10/05 08:18:48;;;;;;;;;12.33;12.33;;;;;19.29;62.51;101476.66;5017597;28;45455;-43
2022/10/05 08:21:19;;;;;;;;;11.00;11.00;;;;;20.28;58.66;101464.38;4953671;28;45602;-46
2022/10/05 08:24:03;;;;;;;;;10.75;10.25;;;;;20.36;57.24;101466.97;4935731;28;45359;-43
2022/10/05 08:26:39;;;;;;;;;10.75;7.50;;;;;19.99;58.05;101459.94;4934831;28;45612;-43
2022/10/05 08:29:13;;;;;;;;;6.75;6.75;;;;;19.80;58.38;101468.63;4934141;28;46650;-43
2022/10/05 08:31:44;;;;;;;;;12.75;9.50;;;;;19.77;59.23;101469.03;4934278;28;45346;-42
2022/10/05 08:34:39;;;;;;;;;7.00;7.00;;;;;19.64;60.45;101472.41;4934662;28;45489;-43
2022/10/05 08:37:16;;;;;;;;;8.00;7.00;;;;;19.78;58.90;101476.94;4934713;28;45482;-45
2022/10/05 08:39:54;;;;;;;;;6.25;6.00;;;;;19.69;60.82;101481.59;4934247;28;45434;-44
2022/10/05 08:42:43;;;;;;;;;6.75;5.00;;;;;19.52;59.64;101474.69;4934591;28;45291;-43
2022/10/05 08:45:32;;;;;;;;;10.25;6.00;;;;;19.45;60.17;101479.16;4934778;28;45426;-45
2022/10/05 08:48:17;;;;;;;;;7.00;7.00;;;;;19.25;60.44;101478.06;4934681;28;45308;-45
2022/10/05 08:51:07;;;;;;;;;7.75;6.00;;;;;19.11;60.81;101480.56;4934210;28;46224;-46
2022/10/05 08:53:49;;;;;;;;;5.00;4.75;;;;;19.01;61.40;101490.78;4920625;28;45537;-45
2022/10/05 08:56:36;;;;;;;;;4.75;4.75;;;;;18.62;61.55;101420.88;4918543;28;45546;-46
2022/10/05 08:59:31;;;;;;;;;5.25;5.25;;;;;18.80;62.33;101466.41;4998163;28;45468;-46
2022/10/05 09:02:02;;;;;;;;;6.00;4.50;;;;;18.67;62.42;101473.22;4998284;28;47457;-55
2022/10/05 09:04:52;;;;;;;;;6.75;6.00;;;;;18.54;62.94;101483.78;4998460;28;45421;-44
2022/10/05 09:07:42;;;;;;;;;8.50;5.25;;;;;18.38;63.38;101483.91;4998401;28;45373;-44
2022/10/05 09:10:45;;;;;;;;;4.50;4.50;;;;;18.27;63.86;101490.53;4998323;28;45562;-43
2022/10/05 09:13:30;;;;;;;;;10.75;7.00;;;;;18.35;63.87;101484.25;4998087;28;46475;-44
2022/10/05 09:16:23;;;;;;;;;5.25;5.25;;;;;18.41;63.81;101486.22;4997654;28;45432;-47
2022/10/05 09:19:01;;;;;;;;;7.25;5.00;;;;;18.49;63.82;101477.22;4998216;28;45482;-43
2022/10/05 09:21:26;;;;;;;;;8.25;6.50;;;;;18.48;63.73;101480.94;4998421;28;45556;-45
2022/10/05 09:24:09;;;;;;;;;5.25;5.25;;;;;18.52;64.12;101479.56;4997918;28;46129;-44
2022/10/05 09:27:06;;;;;;;;;6.50;5.25;;;;;18.45;64.18;101474.88;4996491;28;45520;-43
2022/10/05 09:30:04;;;;;;;;;7.00;6.00;;;;;18.57;63.91;101491.47;4997004;28;45433;-44
2022/10/05 09:33:00;;;;;;;;;5.75;5.50;;;;;18.63;63.64;101493.47;4998247;28;45549;-45
2022/10/05 09:35:28;;;;;;;;;6.75;6.25;;;;;18.68;62.90;101492.91;4997088;28;46405;-44
2022/10/05 09:38:23;;;;;;;;;7.00;6.00;;;;;18.53;62.87;101471.28;4997773;28;45310;-44
2022/10/05 09:41:26;;;;;;;;;6.25;5.00;;;;;18.58;63.28;101498.56;4996944;28;45500;-46
2022/10/05 09:44:07;;;;;;;;;10.00;7.00;;;;;18.82;62.43;101502.91;4998196;28;45278;-43
2022/10/05 09:46:50;;;;;;;;;5.50;5.00;;;;;18.95;62.27;101508.53;4996229;28;47301;-46
2022/10/05 09:49:32;;;;;;;;;6.00;6.00;;;;;19.13;61.50;101527.06;4997441;28;45358;-44
2022/10/05 09:52:36;;;;;;;;;7.75;5.75;;;;;20.03;59.78;101493.63;4999571;28;45346;-44
2022/10/05 09:55:39;;;;;;;;;4.75;4.75;;;;;21.85;55.70;101486.50;4936881;28;45498;-44
2022/10/05 09:58:07;;;;;;;;;7.75;6.25;;;;;24.17;50.03;101490.06;4925330;28;46200;-46
2022/10/05 10:00:55;;;;;;;;;5.80;5.60;;;;;26.30;45.05;101486.84;4936800;28;45526;-45
2022/10/05 10:03:58;;;;;;;;;4.60;4.60;;;;;27.15;44.30;101472.03;4937148;28;45435;-47
2022/10/05 10:06:50;;;;;;;;;3.40;3.40;;;;;27.52;41.97;101465.19;4937138;28;45546;-44
2022/10/05 10:09:46;;;;;;;;;4.20;3.80;;;;;27.40;45.49;101469.84;4936517;28;45544;-46
2022/10/05 10:13:13;;;;;;;;;7.80;4.00;;;;;26.28;45.15;101469.88;4936713;28;45410;-45
2022/10/05 10:16:17;;;;;;;;;3.00;2.40;;;;;25.07;46.20;101468.81;4898445;29;45530;-45
2022/10/05 10:19:05;;;;;;;;;5.80;4.20;;;;;24.49;45.17;101455.56;4898498;29;45443;-43
2022/10/05 10:21:49;;;;;;;;;3.20;3.20;;;;;23.68;46.06;101472.53;4895345;29;47103;-42
2022/10/05 10:24:25;;;;;;;;;3.80;3.00;;;;;23.23;47.51;101467.03;4898227;29;45519;-43
2022/10/05 10:27:11;;;;;;;;;3.20;3.20;;;;;23.15;46.93;101468.91;4898404;29;45501;-45
2022/10/05 10:30:10;;;;;;;;;5.60;4.20;;;;;23.20;48.23;101478.31;4898186;29;45501;-44
2022/10/05 10:33:00;;;;;;;;;2.60;2.20;;;;;23.36;46.19;101469.72;4912925;28;46180;-44
2022/10/05 10:35:28;;;;;;;;;4.00;3.00;;;;;23.39;47.06;101470.13;4917066;28;45402;-44
2022/10/05 10:38:01;;;;;;;;;4.60;3.20;;;;;23.25;46.97;101473.06;4917397;28;45374;-45
2022/10/05 10:40:37;;;;;;;;;3.00;2.40;;;;;23.02;47.22;101468.94;4917288;28;45552;-44
2022/10/05 10:43:21;;;;;;;;;4.40;4.00;;;;;22.72;48.03;101462.28;4916850;28;46284;-46
2022/10/05 10:46:01;;;;;;;;;2.80;2.80;;;;;22.47;48.79;101459.34;4916975;28;46070;-45
2022/10/05 10:48:29;;;;;;;;;4.20;4.20;;;;;22.29;48.91;101463.53;4934631;28;45364;-44
2022/10/05 10:51:04;;;;;;;;;6.60;4.40;;;;;22.93;47.94;101463.97;5016924;28;45435;-43
2022/10/05 10:54:02;;;;;;;;;3.00;3.00;;;;;23.40;47.30;101463.63;5016154;28;46375;-46
2022/10/05 10:56:52;;;;;;;;;6.40;4.20;;;;;24.22;45.71;101453.00;5016091;28;45342;-46
2022/10/05 10:59:54;;;;;;;;;6.40;4.00;;;;;24.08;45.62;101446.00;5016487;28;45264;-43
2022/10/05 11:02:41;;;;;;;;;2.80;2.80;;;;;24.72;45.16;101442.16;5016928;28;45397;-44
2022/10/05 11:05:15;;;;;;;;;2.80;2.80;;;;;24.78;44.52;101444.00;5016025;28;46613;-44
2022/10/05 11:08:13;;;;;;;;;4.40;4.40;;;;;26.20;41.67;101437.47;5016260;28;45356;-44
2022/10/05 11:11:01;;;;;;;;;4.00;3.60;;;;;27.29;42.01;101429.72;5016194;28;45396;-45
2022/10/05 11:14:01;;;;;;;;;4.60;4.60;;;;;28.80;38.01;101410.81;5016407;28;45329;-44
2022/10/05 11:16:35;;;;;;;;;2.80;2.80;;;;;29.81;36.81;101401.44;5015424;28;46261;-53
2022/10/05 11:19:20;;;;;;;;;3.20;3.20;;;;;32.78;35.32;101390.53;4998649;28;45427;-46
2022/10/05 11:22:11;;;;;;;;;3.00;2.00;;;;;35.34;28.27;101406.81;5016133;28;45441;-48
2022/10/05 11:25:13;;;;;;;;;4.00;4.00;;;;;37.08;27.26;101403.91;5016170;28;45407;-43
2022/10/05 11:28:03;;;;;;;;;2.80;2.20;;;;;37.89;26.34;101392.97;5015769;28;45339;-47
2022/10/05 11:31:17;;;;;;;;;3.80;3.80;;;;;38.48;24.53;101390.91;5016049;28;45232;-45
2022/10/05 11:34:16;;;;;;;;;3.40;2.80;;;;;38.73;23.83;101382.97;5022890;28;45462;-47
2022/10/05 11:37:12;;;;;;;;;2.80;2.80;;;;;39.49;23.01;101374.38;5036077;28;45395;-46
2022/10/05 11:39:51;;;;;;;;;3.60;2.00;;;;;39.83;21.80;101377.16;5035700;28;45284;-45
2022/10/05 11:42:59;;;;;;;;;2.60;2.60;;;;;39.42;23.00;101375.66;5035211;28;45430;-47
2022/10/05 11:45:29;;;;;;;;;1.40;1.40;;;;;39.38;22.72;101360.75;4954663;28;45511;-45
2022/10/05 11:48:05;;;;;;;;;1.20;1.20;;;;;39.80;23.79;101382.56;4954928;28;45519;-46
2022/10/05 11:51:02;;;;;;;;;1.80;1.80;;;;;40.02;22.20;101384.34;4954039;28;46202;-48
2022/10/05 11:53:42;;;;;;;;;3.20;2.40;;;;;39.70;21.57;101386.53;4954180;28;45377;-45
2022/10/05 11:56:26;;;;;;;;;3.20;1.20;;;;;39.48;21.48;101373.53;4954321;28;45493;-46
2022/10/05 11:59:26;;;;;;;;;3.00;2.00;;;;;39.48;21.95;101376.31;4954768;28;45377;-47
2022/10/05 12:02:27;;;;;;;;;0.80;0.60;;;;;39.23;22.01;101368.75;4951498;28;46132;-48
2022/10/05 12:05:18;;;;;;;;;1.00;1.00;;;;;39.26;23.39;101376.47;4954614;28;45400;-48
2022/10/05 12:07:55;;;;;;;;;2.60;2.00;;;;;38.92;21.65;101364.09;4954398;28;45441;-45
2022/10/05 12:10:27;;;;;;;;;2.80;0.80;;;;;38.65;23.28;101354.84;4954311;28;45331;-49
2022/10/05 12:13:01;;;;;;;;;0.80;0.80;;;;;38.57;22.43;101360.38;4954221;28;46212;-50
2022/10/05 12:16:07;;;;;;;;;3.00;1.80;;;;;38.78;22.43;101360.63;4954021;28;45481;-46
2022/10/05 12:18:32;;;;;;;;;2.80;1.00;;;;;39.12;23.33;101362.69;4915538;28;45533;-46
2022/10/05 12:21:09;;;;;;;;;2.25;1.75;;;;;39.05;23.49;101357.59;4924307;28;45476;-45
2022/10/05 12:24:06;;;;;;;;;1.80;1.80;;;;;38.69;22.00;101355.84;4973400;28;46226;-47
2022/10/05 12:27:12;;;;;;;;;2.00;1.40;;;;;38.32;23.45;101365.50;4973386;28;45298;-45
2022/10/05 12:30:09;;;;;;;;;1.80;1.80;;;;;37.94;24.23;101346.44;4976746;28;45456;-50